< < Back
Terminal Aerodrome Forecast


Current Version              Previous Versions:   1  2  3  4  5  6  7  8  9  

Terminal Aerodrome Forecast

741
FTUS44 KBMX 250500
TAFANB
TAF
KANB 250523Z 2506/2606 00000KT P6SM SKC
     FM251500 34006KT P6SM SKC=

Latest METAR

434
SAUS70 KWBC 250900 RRK
MTRANB
METAR KANB 250853Z AUTO 00000KT 7SM CLR 04/04 A3007 RMK AO2 SLP184
T00440039 55003


USA.gov is the U.S. government's official web portal to all federal, state and local government web resources and services.